createdAt,value
2023-03-26T00:01:25.463Z,81.80
2023-03-26T00:03:55.381Z,81.90
2023-03-26T00:06:25.268Z,82.00
2023-03-26T00:08:55.703Z,81.90
2023-03-26T00:11:23.700Z,81.80
2023-03-26T00:13:56.792Z,82.00
2023-03-26T00:16:25.966Z,82.00
2023-03-26T00:18:55.039Z,82.20
2023-03-26T00:21:27.858Z,82.30
2023-03-26T00:23:56.115Z,82.10
2023-03-26T00:26:24.035Z,82.30
2023-03-26T00:28:52.394Z,82.00
2023-03-26T00:31:19.782Z,82.30
2023-03-26T00:33:47.690Z,82.20
2023-03-26T00:36:17.972Z,81.70
2023-03-26T00:38:46.834Z,82.20
2023-03-26T00:41:24.966Z,82.40
2023-03-26T00:43:56.504Z,82.50
2023-03-26T00:46:24.394Z,82.50
2023-03-26T00:48:54.597Z,82.20
2023-03-26T00:51:22.072Z,81.80
2023-03-26T00:53:50.686Z,82.60
2023-03-26T00:56:18.761Z,82.20
2023-03-26T00:58:47.584Z,82.60
2023-03-26T01:01:19.066Z,82.60
2023-03-26T01:03:57.130Z,82.70
2023-03-26T01:06:37.861Z,83.00
2023-03-26T01:09:12.707Z,83.10
2023-03-26T01:11:40.645Z,83.10
2023-03-26T01:14:12.801Z,82.90
2023-03-26T01:16:46.013Z,83.00
2023-03-26T01:19:21.157Z,83.10
2023-03-26T01:21:59.399Z,83.10
2023-03-26T01:24:28.235Z,83.10
2023-03-26T01:27:12.212Z,82.40
2023-03-26T01:29:57.072Z,82.80
2023-03-26T01:32:47.748Z,83.00
2023-03-26T01:35:40.931Z,83.10
2023-03-26T01:38:24.978Z,83.20
2023-03-26T01:41:00.625Z,83.30
2023-03-26T01:43:36.360Z,82.90
2023-03-26T01:46:08.055Z,83.20
2023-03-26T01:48:37.094Z,83.20
2023-03-26T01:51:05.175Z,83.40
2023-03-26T01:53:33.425Z,83.50
2023-03-26T01:56:13.304Z,83.40
2023-03-26T01:58:55.278Z,83.10
2023-03-26T02:01:30.279Z,83.20
2023-03-26T02:04:07.827Z,83.30
2023-03-26T02:06:44.509Z,83.50
2023-03-26T02:09:15.995Z,83.50
2023-03-26T02:11:46.740Z,83.50
2023-03-26T02:14:18.628Z,83.20
2023-03-26T02:16:46.852Z,83.40
2023-03-26T02:19:22.949Z,83.10
2023-03-26T02:21:51.479Z,83.30
2023-03-26T02:24:19.083Z,83.70
2023-03-26T02:26:47.301Z,83.70
2023-03-26T02:29:19.277Z,83.80
2023-03-26T02:31:48.175Z,83.60
2023-03-26T02:34:15.603Z,83.60
2023-03-26T02:36:43.603Z,83.80
2023-03-26T02:39:11.958Z,83.70
2023-03-26T02:41:39.598Z,83.60
2023-03-26T02:44:07.989Z,83.80
2023-03-26T02:46:35.314Z,83.80
2023-03-26T02:49:02.288Z,83.60
2023-03-26T02:51:29.095Z,83.70
2023-03-26T02:53:58.067Z,83.60
2023-03-26T02:56:25.403Z,83.60
2023-03-26T02:58:52.285Z,83.30
2023-03-26T03:01:25.887Z,83.60
2023-03-26T03:03:52.765Z,83.70
2023-03-26T03:06:19.705Z,83.80
2023-03-26T03:08:46.703Z,83.70
2023-03-26T03:11:16.400Z,83.70
2023-03-26T03:13:44.500Z,83.60
2023-03-26T03:16:11.368Z,83.70
2023-03-26T03:18:39.738Z,83.70
2023-03-26T03:21:06.779Z,83.40
2023-03-26T03:23:33.670Z,83.60
2023-03-26T03:26:02.582Z,83.40
2023-03-26T03:28:30.476Z,83.50
2023-03-26T03:30:57.974Z,83.40
2023-03-26T03:33:25.255Z,83.70
2023-03-26T03:35:53.929Z,83.70
2023-03-26T03:38:20.916Z,83.60
2023-03-26T03:40:48.225Z,83.70
2023-03-26T03:43:15.269Z,83.50
2023-03-26T03:45:42.484Z,83.40
2023-03-26T03:48:09.361Z,83.60
2023-03-26T03:50:36.604Z,83.70
2023-03-26T03:53:06.012Z,83.60
2023-03-26T03:55:32.939Z,83.50
2023-03-26T03:58:00.743Z,83.60
2023-03-26T04:00:27.843Z,83.70
2023-03-26T04:02:56.226Z,83.40
2023-03-26T04:05:23.559Z,83.40
2023-03-26T04:07:50.595Z,83.40
2023-03-26T04:10:20.383Z,83.70
2023-03-26T04:12:50.027Z,83.50
2023-03-26T04:15:17.108Z,83.80
2023-03-26T04:17:44.903Z,83.70
2023-03-26T04:20:16.117Z,83.90
2023-03-26T04:22:43.617Z,83.80
2023-03-26T04:25:11.564Z,83.90
2023-03-26T04:27:41.779Z,83.90
2023-03-26T04:30:16.565Z,83.90
2023-03-26T04:32:44.821Z,83.80
2023-03-26T04:35:14.492Z,83.80
2023-03-26T04:37:44.226Z,83.60
2023-03-26T04:40:15.482Z,83.60
2023-03-26T04:42:46.663Z,83.70
2023-03-26T04:45:14.694Z,83.70
2023-03-26T04:47:41.849Z,83.80
2023-03-26T04:50:11.170Z,83.70
2023-03-26T04:52:38.845Z,83.70
2023-03-26T04:55:25.807Z,83.70
2023-03-26T04:57:57.213Z,83.70
2023-03-26T05:00:25.416Z,83.70
2023-03-26T05:02:57.366Z,83.70
2023-03-26T05:05:24.871Z,83.60
2023-03-26T05:07:52.484Z,83.60
2023-03-26T05:10:20.634Z,83.70
2023-03-26T05:12:47.648Z,83.70
2023-03-26T05:15:16.583Z,83.70
2023-03-26T05:17:43.536Z,83.70
2023-03-26T05:20:18.332Z,83.80
2023-03-26T05:22:45.341Z,83.80
2023-03-26T05:25:12.767Z,83.90
2023-03-26T05:27:40.458Z,84.10
2023-03-26T05:30:08.437Z,83.90
2023-03-26T05:32:36.706Z,83.90
2023-03-26T05:35:04.710Z,83.90
2023-03-26T05:37:31.898Z,84.00
2023-03-26T05:39:59.909Z,84.00
2023-03-26T05:42:27.073Z,84.00
2023-03-26T05:44:53.972Z,84.00
2023-03-26T05:47:20.890Z,83.90
2023-03-26T05:49:49.377Z,83.90
2023-03-26T05:52:18.985Z,84.00
2023-03-26T05:54:45.936Z,84.00
2023-03-26T05:57:12.840Z,83.80
2023-03-26T05:59:39.738Z,84.00
2023-03-26T06:02:07.280Z,83.90
2023-03-26T06:04:34.199Z,84.10
2023-03-26T06:07:03.903Z,84.10
2023-03-26T06:09:31.006Z,84.10
2023-03-26T06:11:57.883Z,84.30
2023-03-26T06:14:25.448Z,84.30
2023-03-26T06:16:52.363Z,84.30
2023-03-26T06:19:19.352Z,84.30
2023-03-26T06:21:46.221Z,84.30
2023-03-26T06:24:16.407Z,84.30
2023-03-26T06:26:43.974Z,84.40
2023-03-26T06:29:10.912Z,84.20
2023-03-26T06:31:38.006Z,84.20
2023-03-26T06:34:04.918Z,84.40
2023-03-26T06:36:47.945Z,84.40
2023-03-26T06:39:16.522Z,84.40
2023-03-26T06:41:43.923Z,84.30
2023-03-26T06:44:11.358Z,84.40
2023-03-26T06:46:38.703Z,84.40
2023-03-26T06:49:06.047Z,84.30
2023-03-26T06:51:33.121Z,84.50
2023-03-26T06:54:00.389Z,84.50
2023-03-26T06:56:28.667Z,84.40
2023-03-26T06:58:56.060Z,84.30
2023-03-26T07:01:22.961Z,84.40
2023-03-26T07:03:50.006Z,84.30
2023-03-26T07:06:16.944Z,84.40
2023-03-26T07:08:46.283Z,84.40
2023-03-26T07:11:13.260Z,84.20
2023-03-26T07:13:41.773Z,84.20
2023-03-26T07:16:09.557Z,84.40
2023-03-26T07:18:46.081Z,84.30
2023-03-26T07:21:13.907Z,84.20
2023-03-26T07:23:41.562Z,84.30
2023-03-26T07:26:25.472Z,84.30
2023-03-26T07:29:10.511Z,84.30
2023-03-26T07:31:45.971Z,84.30
2023-03-26T07:34:26.406Z,84.20
2023-03-26T07:37:01.139Z,84.20
2023-03-26T07:39:51.985Z,84.20
2023-03-26T07:42:30.906Z,84.20
2023-03-26T07:45:03.005Z,84.10
2023-03-26T07:47:33.153Z,84.20
2023-03-26T07:50:07.369Z,84.20
2023-03-26T07:52:34.918Z,84.20
2023-03-26T07:55:03.475Z,84.30
2023-03-26T07:57:38.639Z,84.10
2023-03-26T08:00:16.574Z,84.10
2023-03-26T08:03:05.959Z,84.00
2023-03-26T08:05:35.810Z,83.90
2023-03-26T08:08:16.825Z,84.00
2023-03-26T08:10:57.619Z,83.90
2023-03-26T08:13:30.568Z,84.00
2023-03-26T08:16:08.118Z,83.90
2023-03-26T08:18:45.594Z,83.90
2023-03-26T08:21:18.599Z,83.80
2023-03-26T08:23:55.050Z,83.80
2023-03-26T08:26:31.675Z,83.80
2023-03-26T08:29:07.215Z,83.80
2023-03-26T08:31:40.284Z,83.90
2023-03-26T08:34:15.530Z,83.60
2023-03-26T08:36:43.076Z,83.70
2023-03-26T08:39:10.180Z,83.60
2023-03-26T08:42:15.866Z,83.50
2023-03-26T08:45:14.627Z,83.30
2023-03-26T08:48:19.001Z,83.30
2023-03-26T08:51:23.065Z,83.40
2023-03-26T08:54:21.693Z,83.30
2023-03-26T08:57:00.406Z,83.30
2023-03-26T09:00:11.067Z,83.30
2023-03-26T09:03:06.149Z,83.30
2023-03-26T09:06:06.406Z,83.30
2023-03-26T09:09:18.762Z,83.20
2023-03-26T09:12:09.230Z,83.20
2023-03-26T09:14:58.262Z,83.20
2023-03-26T09:18:10.727Z,83.20
2023-03-26T09:21:02.352Z,83.30
2023-03-26T09:24:05.892Z,83.40
2023-03-26T09:26:45.564Z,83.40
2023-03-26T09:29:42.883Z,83.30
2023-03-26T09:32:52.881Z,83.30
2023-03-26T09:35:43.040Z,83.50
2023-03-26T09:38:27.756Z,83.60
2023-03-26T09:40:58.900Z,83.70
2023-03-26T09:44:10.305Z,84.10
2023-03-26T09:46:46.754Z,83.80
2023-03-26T09:49:44.004Z,83.80
2023-03-26T09:52:28.731Z,83.80
2023-03-26T09:55:29.530Z,83.80
2023-03-26T09:58:10.058Z,83.90
2023-03-26T10:00:48.114Z,84.00
2023-03-26T10:03:35.939Z,83.90
2023-03-26T10:06:26.771Z,83.90
2023-03-26T10:09:10.403Z,83.80
2023-03-26T10:12:04.634Z,83.80
2023-03-26T10:14:39.642Z,83.80
2023-03-26T10:17:33.652Z,84.00
2023-03-26T10:20:19.912Z,84.00
2023-03-26T10:22:59.154Z,84.00
2023-03-26T10:25:53.317Z,84.30
2023-03-26T10:28:51.876Z,84.30
2023-03-26T10:31:34.279Z,84.10
2023-03-26T10:34:28.728Z,84.20
2023-03-26T10:37:06.539Z,84.30
2023-03-26T10:40:06.038Z,84.60
2023-03-26T10:42:50.490Z,84.50
2023-03-26T10:45:51.809Z,84.60
2023-03-26T10:48:34.012Z,84.70
2023-03-26T10:51:34.582Z,84.50
2023-03-26T10:54:07.986Z,84.50
2023-03-26T10:56:40.081Z,84.40
2023-03-26T10:59:14.904Z,84.60
2023-03-26T11:01:51.148Z,84.70
2023-03-26T11:04:33.935Z,84.40
2023-03-26T11:07:16.200Z,84.50
2023-03-26T11:09:54.000Z,84.50
2023-03-26T11:12:29.347Z,84.20
2023-03-26T11:15:15.244Z,84.30
2023-03-26T11:17:56.697Z,84.50
2023-03-26T11:20:33.147Z,84.60
2023-03-26T11:23:23.074Z,84.70
2023-03-26T11:26:16.154Z,84.80
2023-03-26T11:29:32.135Z,84.70
2023-03-26T11:32:04.050Z,84.70
2023-03-26T11:34:37.771Z,84.70
2023-03-26T11:37:09.487Z,84.60
2023-03-26T11:39:46.830Z,84.70
2023-03-26T11:42:15.769Z,84.60
2023-03-26T11:44:46.880Z,84.70
2023-03-26T11:47:18.788Z,84.50
2023-03-26T11:49:50.171Z,84.60
2023-03-26T11:52:17.564Z,84.70
2023-03-26T11:54:48.223Z,84.70
2023-03-26T11:57:19.691Z,84.80
2023-03-26T11:59:57.689Z,84.80
2023-03-26T12:02:29.301Z,84.70
2023-03-26T12:05:20.859Z,85.00
2023-03-26T12:07:53.120Z,84.80
2023-03-26T12:10:33.216Z,84.80
2023-03-26T12:13:03.117Z,84.90
2023-03-26T12:15:34.486Z,85.00
2023-03-26T12:18:23.526Z,84.70
2023-03-26T12:21:03.473Z,84.80
2023-03-26T12:23:44.463Z,84.70
2023-03-26T12:26:18.338Z,84.70
2023-03-26T12:28:47.145Z,84.60
2023-03-26T12:31:18.485Z,84.60
2023-03-26T12:34:06.409Z,84.70
2023-03-26T12:36:35.889Z,84.70
2023-03-26T12:40:06.739Z,84.80
2023-03-26T12:44:44.458Z,84.50
2023-03-26T12:45:14.494Z,84.70
2023-03-26T12:48:00.659Z,84.50
2023-03-26T12:50:35.885Z,84.30
2023-03-26T12:53:19.433Z,84.30
2023-03-26T12:56:00.413Z,84.30
2023-03-26T12:59:03.955Z,84.10
2023-03-26T13:01:46.499Z,84.20
2023-03-26T13:04:34.445Z,84.50
2023-03-26T13:07:07.792Z,84.20
2023-03-26T13:09:56.582Z,84.00
2023-03-26T13:12:41.212Z,83.90
2023-03-26T13:15:22.058Z,83.90
2023-03-26T13:18:00.680Z,83.50
2023-03-26T13:20:35.053Z,82.80
2023-03-26T13:23:09.551Z,82.80
2023-03-26T13:25:48.165Z,83.00
2023-03-26T13:28:31.758Z,82.60
2023-03-26T13:31:05.948Z,82.00
2023-03-26T13:33:39.925Z,82.10
2023-03-26T13:36:23.052Z,82.30
2023-03-26T13:39:16.158Z,81.80
2023-03-26T13:42:03.685Z,81.80
2023-03-26T13:44:40.128Z,81.40
2023-03-26T13:47:18.698Z,81.20
2023-03-26T13:49:51.997Z,81.10
2023-03-26T13:52:30.816Z,81.30
2023-03-26T13:55:07.369Z,79.90
2023-03-26T13:57:48.559Z,80.80
2023-03-26T14:00:21.545Z,80.30
2023-03-26T14:02:57.292Z,80.80
2023-03-26T14:05:30.506Z,80.40
2023-03-26T14:08:22.361Z,80.50
2023-03-26T14:10:54.057Z,80.80
2023-03-26T14:13:31.336Z,80.60
2023-03-26T14:16:05.732Z,80.40
2023-03-26T14:18:48.103Z,80.00
2023-03-26T14:21:41.446Z,79.00
2023-03-26T14:24:33.203Z,78.50
2023-03-26T14:27:24.496Z,78.60
2023-03-26T14:30:04.596Z,78.40
2023-03-26T14:32:52.092Z,79.30
2023-03-26T14:35:35.170Z,77.30
2023-03-26T14:38:32.873Z,78.40
2023-03-26T14:41:13.079Z,78.30
2023-03-26T14:44:12.520Z,78.80
2023-03-26T14:46:56.030Z,77.40
2023-03-26T14:49:51.626Z,77.10
2023-03-26T14:52:24.670Z,76.90
2023-03-26T14:54:55.914Z,77.30
2023-03-26T14:57:58.739Z,76.60
2023-03-26T15:00:51.079Z,75.70
2023-03-26T15:03:58.352Z,75.10
2023-03-26T15:07:15.989Z,76.10
2023-03-26T15:10:11.493Z,76.60
2023-03-26T15:12:51.851Z,75.30
2023-03-26T15:15:58.178Z,76.30
2023-03-26T15:19:06.930Z,75.20
2023-03-26T15:22:04.436Z,75.00
2023-03-26T15:25:08.628Z,75.90
2023-03-26T15:27:57.347Z,75.40
2023-03-26T15:30:59.695Z,74.50
2023-03-26T15:34:20.013Z,75.30
2023-03-26T15:37:32.186Z,74.50
2023-03-26T15:40:29.291Z,73.50
2023-03-26T15:43:05.544Z,73.60
2023-03-26T15:45:35.468Z,73.40
2023-03-26T15:48:39.359Z,73.90
2023-03-26T15:51:47.357Z,74.50
2023-03-26T15:54:25.632Z,75.10
2023-03-26T15:57:09.008Z,75.80
2023-03-26T15:59:47.311Z,75.00
2023-03-26T16:02:28.226Z,74.50
2023-03-26T16:04:58.416Z,74.70
2023-03-26T16:07:48.493Z,73.90
2023-03-26T16:10:28.612Z,72.80
2023-03-26T16:13:25.104Z,73.40
2023-03-26T16:15:56.411Z,73.90
2023-03-26T16:18:31.498Z,73.40
2023-03-26T16:21:47.065Z,73.80
2023-03-26T16:24:24.431Z,75.00
2023-03-26T16:27:30.267Z,73.10
2023-03-26T16:30:30.610Z,74.30
2023-03-26T16:33:14.018Z,73.40
2023-03-26T16:36:02.593Z,73.80
2023-03-26T16:38:50.260Z,71.70
2023-03-26T16:41:19.291Z,71.60
2023-03-26T16:44:13.055Z,72.30
2023-03-26T16:46:48.934Z,72.60
2023-03-26T16:49:25.462Z,72.20
2023-03-26T16:52:09.522Z,72.60
2023-03-26T16:54:48.114Z,71.50
2023-03-26T16:57:27.098Z,70.90
2023-03-26T17:00:13.318Z,70.70
2023-03-26T17:02:52.219Z,72.50
2023-03-26T17:05:34.301Z,71.70
2023-03-26T17:08:11.225Z,71.50
2023-03-26T17:10:44.404Z,72.30
2023-03-26T17:13:23.321Z,72.00
2023-03-26T17:16:01.834Z,72.60
2023-03-26T17:18:38.903Z,72.20
2023-03-26T17:21:16.095Z,71.20
2023-03-26T17:24:05.397Z,72.20
2023-03-26T17:26:44.315Z,72.70
2023-03-26T17:29:28.509Z,71.30
2023-03-26T17:32:08.523Z,71.30
2023-03-26T17:34:52.852Z,72.80
2023-03-26T17:37:35.159Z,72.40
2023-03-26T17:40:48.977Z,72.00
2023-03-26T17:43:50.165Z,71.50
2023-03-26T17:46:33.011Z,71.70
2023-03-26T17:49:04.686Z,72.00
2023-03-26T17:51:46.618Z,71.70
2023-03-26T17:54:29.781Z,72.10
2023-03-26T17:57:02.731Z,73.00
2023-03-26T17:59:31.811Z,72.20
2023-03-26T18:02:00.849Z,72.10
2023-03-26T18:04:38.689Z,72.00
2023-03-26T18:07:29.244Z,72.10
2023-03-26T18:10:17.968Z,70.50
2023-03-26T18:13:08.803Z,71.00
2023-03-26T18:15:47.884Z,71.40
2023-03-26T18:18:19.860Z,70.30
2023-03-26T18:20:51.564Z,70.70
2023-03-26T18:23:25.249Z,71.30
2023-03-26T18:25:57.854Z,71.30
2023-03-26T18:28:41.261Z,71.60
2023-03-26T18:31:17.069Z,71.20
2023-03-26T18:33:45.439Z,71.60
2023-03-26T18:36:14.994Z,71.80
2023-03-26T18:38:42.966Z,71.80
2023-03-26T18:41:27.519Z,72.30
2023-03-26T18:43:55.534Z,72.10
2023-03-26T18:46:38.421Z,71.60
2023-03-26T18:49:07.000Z,71.90
2023-03-26T18:51:43.235Z,71.80
2023-03-26T18:54:20.161Z,71.90
2023-03-26T18:56:52.112Z,72.20
2023-03-26T18:59:28.016Z,72.40
2023-03-26T19:01:59.605Z,72.10
2023-03-26T19:04:28.082Z,71.90
2023-03-26T19:06:59.902Z,72.60
2023-03-26T19:09:32.009Z,72.40
2023-03-26T19:12:08.325Z,72.40
2023-03-26T19:14:51.489Z,72.60
2023-03-26T19:17:21.383Z,72.30
2023-03-26T19:19:50.012Z,72.30
2023-03-26T19:22:17.188Z,72.40
2023-03-26T19:24:44.359Z,72.10
2023-03-26T19:27:14.150Z,72.60
2023-03-26T19:29:46.186Z,72.10
2023-03-26T19:32:19.028Z,71.20
2023-03-26T19:34:47.130Z,71.50
2023-03-26T19:37:22.823Z,71.50
2023-03-26T19:39:51.532Z,71.70
2023-03-26T19:42:27.598Z,71.50
2023-03-26T19:45:16.685Z,71.90
2023-03-26T19:48:00.137Z,71.80
2023-03-26T19:50:34.016Z,71.60
2023-03-26T19:53:18.757Z,71.80
2023-03-26T19:55:57.348Z,71.20
2023-03-26T19:58:27.303Z,71.60
2023-03-26T20:00:56.666Z,71.70
2023-03-26T20:03:28.021Z,71.90
2023-03-26T20:05:55.217Z,71.10
2023-03-26T20:08:26.873Z,71.00
2023-03-26T20:10:55.593Z,71.00
2023-03-26T20:13:22.921Z,70.90
2023-03-26T20:16:05.902Z,71.10
2023-03-26T20:18:34.022Z,71.20
2023-03-26T20:21:01.059Z,71.50
2023-03-26T20:23:31.030Z,71.60
2023-03-26T20:26:00.467Z,71.30
2023-03-26T20:28:27.476Z,71.40
2023-03-26T20:30:56.342Z,72.00
2023-03-26T20:33:25.765Z,71.80
2023-03-26T20:35:56.870Z,71.70
2023-03-26T20:38:36.720Z,71.90
2023-03-26T20:41:06.386Z,71.80
2023-03-26T20:43:33.413Z,71.90
2023-03-26T20:46:01.740Z,72.00
2023-03-26T20:48:28.570Z,72.30
2023-03-26T20:50:57.014Z,72.40
2023-03-26T20:53:24.238Z,72.30
2023-03-26T20:55:51.739Z,72.20
2023-03-26T20:58:31.180Z,72.30
2023-03-26T21:01:01.937Z,72.10
2023-03-26T21:03:29.332Z,72.10
2023-03-26T21:06:02.500Z,72.30
2023-03-26T21:08:37.099Z,72.30
2023-03-26T21:11:12.604Z,72.70
2023-03-26T21:13:44.911Z,72.70
2023-03-26T21:16:14.506Z,72.70
2023-03-26T21:18:45.479Z,72.80
2023-03-26T21:21:34.038Z,72.90
2023-03-26T21:24:07.941Z,72.90
2023-03-26T21:26:43.616Z,72.90
2023-03-26T21:29:13.482Z,72.90
2023-03-26T21:31:42.588Z,72.80
2023-03-26T21:34:13.645Z,72.90
2023-03-26T21:36:41.939Z,72.90
2023-03-26T21:39:10.942Z,73.00
2023-03-26T21:41:43.994Z,73.10
2023-03-26T21:44:10.984Z,73.20
2023-03-26T21:46:43.472Z,73.30
2023-03-26T21:49:11.171Z,73.50
2023-03-26T21:51:39.219Z,73.50
2023-03-26T21:54:11.653Z,73.60
2023-03-26T21:56:47.186Z,73.70
2023-03-26T21:59:23.012Z,73.70
2023-03-26T22:02:00.495Z,73.70
2023-03-26T22:04:36.747Z,73.70
2023-03-26T22:07:10.400Z,73.90
2023-03-26T22:09:38.102Z,73.90
2023-03-26T22:12:05.343Z,74.00
2023-03-26T22:14:33.600Z,74.20
2023-03-26T22:17:03.240Z,74.30
2023-03-26T22:19:30.557Z,74.80
2023-03-26T22:21:58.302Z,74.90
2023-03-26T22:24:26.134Z,75.10
2023-03-26T22:26:58.936Z,75.20
2023-03-26T22:29:25.776Z,75.30
2023-03-26T22:31:52.955Z,75.40
2023-03-26T22:34:23.055Z,75.40
2023-03-26T22:36:49.948Z,75.50
2023-03-26T22:39:17.238Z,75.60
2023-03-26T22:41:44.178Z,75.60
2023-03-26T22:44:19.909Z,75.60
2023-03-26T22:46:53.536Z,75.60
2023-03-26T22:49:24.281Z,75.70
2023-03-26T22:51:51.577Z,75.70
2023-03-26T22:54:18.934Z,75.70
2023-03-26T22:56:46.080Z,75.70
2023-03-26T22:59:13.234Z,75.70
2023-03-26T23:01:41.368Z,75.70
2023-03-26T23:04:08.454Z,75.70
2023-03-26T23:06:38.308Z,75.60
2023-03-26T23:09:07.050Z,75.70
2023-03-26T23:11:36.835Z,75.70
2023-03-26T23:14:13.281Z,75.70
2023-03-26T23:16:40.482Z,75.80
2023-03-26T23:19:07.797Z,75.90
2023-03-26T23:21:36.676Z,76.00
2023-03-26T23:24:06.931Z,76.00
2023-03-26T23:26:43.928Z,76.00
2023-03-26T23:29:17.246Z,76.00
2023-03-26T23:31:44.312Z,76.10
2023-03-26T23:34:13.533Z,76.20
2023-03-26T23:36:44.833Z,76.30
2023-03-26T23:39:13.015Z,76.40
2023-03-26T23:41:40.203Z,76.40
2023-03-26T23:44:07.600Z,76.40
2023-03-26T23:46:34.553Z,76.50
2023-03-26T23:49:03.283Z,76.50
2023-03-26T23:51:31.091Z,76.60
2023-03-26T23:53:59.826Z,76.70
2023-03-26T23:56:30.056Z,76.90
2023-03-26T23:58:57.258Z,76.80
